TAF KGRI
KGRI 280532Z 2806/2906 33007KT P6SM FEW100 FM280900 VRB04KT P6SM SKC FM281600 22010KT P6SM FEW250 FM290100 VRB06KT P6SM FEW250=
METAR KGRI
WC KGRI
WS KGRI
WV KGRI